TRINITY LAKE (CLE)

Elevation: 2370' · TRINITY R basin · Operator: US Bureau of Reclamation

Provisional data, subject to change.
Query executed Monday at 19:29:37   clock

Select a sensor type for a plot of data.
Note: Reservoir Flows are daily averages.

Earlier

Date RES ELE    STORAGE    RES CHG    OUTFLOW    INFLOW    EVAP    FNF    RIV REL    PPT INC    SPILL    DIS PWR   
 FEET   AF   AF   CFS   CFS   CFS   CFS   CFS   INCHES   CFS   CFS  
06/29/2014 2262.41 1066277 -3909 2202 340 109 340 0 0.00 0 2202
06/30/2014 2262.02 1062646 -3631 2198 452 85 452 0 0.00 0 2198
07/01/2014 2261.28 1055801 -6845 3665 309 95 309 0 0.00 0 3665
07/02/2014 2260.58 1049351 -6450 3508 361 105 238 e 0 0.00 0 3508
07/03/2014 2259.79 1042103 -7248 3682 114 86 237 e 0 0.00 0 3682
07/04/2014 2259.01 1034979 -7124 3718 222 96 222 0 0.00 0 3718
07/05/2014 2258.21 1027717 -7262 3734 174 101 174 0 0.00 0 3734
07/06/2014 2257.40 1020397 -7320 3760 221 151 221 0 0.00 0 3760
07/07/2014 2256.60 1013200 -7197 3723 190 95 190 0 0.00 0 3723
07/08/2014 2255.80 1006036 -7164 3639 132 105 132 0 0.00 0 3639
07/09/2014 2255.04 999261 -6775 3510 199 105 144 e 0 0.00 0 3510
07/10/2014 2254.34 993056 -6205 3070 51 109 122 e 2 0.00 0 3068
07/11/2014 2253.65 986962 -6094 3059 86 99 143 e 0 0.00 0 3059
07/12/2014 2252.96 980888 -6074 3105 131 88 131 e 0 0.00 0 3105
07/13/2014 2252.24 974586 -6302 3163 76 90 154 e 0 0.00 0 3163
07/14/2014 2251.56 968657 -5929 3116 232 105 154 e 0 0.00 0 3116
07/15/2014 2250.84 962403 -6254 3235 158 76 158 0 0.00 0 3235
07/16/2014 2250.23 957129 -5274 2703 105 61 105 0 0.00 0 2703
07/17/2014 2249.59 951618 -5511 2823 161 116 49 e 0 0.00 0 2823
07/18/2014 2248.90 945695 -5923 3030 125 81 125 0 0.00 0 3030
07/19/2014 2248.04 938353 -7342 3748 134 88 134 0 0.00 0 3748
07/20/2014 2247.31 932159 -6194 3031 13 105 49 e 0 0.00 0 3031
07/21/2014 2246.52 925485 -6674 3264 -27 74 -27 e 0 0.00 0 3264
07/22/2014 2245.76 919093 -6392 3007 -149 67 -149 0 0.00 0 3007
07/23/2014 2245.06 913231 -5862 2895 -18 42 -18 0 0.00 0 2895
07/24/2014 2244.32 907072 -6159 3077 21 49 21 0 0.00 0 3077
07/25/2014 2243.54 900608 -6464 3287 128 100 128 0 0.00 0 3287
07/26/2014 2242.78 894338 -6270 3204 106 63 106 0 0.00 0 3204
07/27/2014 2242.10 888754 -5584 2836 132 111 132 0 0.00 0 2836
07/28/2014 -- -- -- -- -- -- -- -- -- -- --

Later | Latest

Warning! This data is preliminary and subject to revision.

Download Data Now Download Data Now | Show CLE Map | Plot CLE Data | 1 Month CLE Data | Real-Time CLE Data | CLE Info